createdAt,value
2022-08-25T00:02:01.977Z,98213.38
2022-08-25T00:04:35.267Z,98201.91
2022-08-25T00:07:08.575Z,98201.94
2022-08-25T00:09:41.462Z,98204.59
2022-08-25T00:12:12.382Z,98202.03
2022-08-25T00:14:43.069Z,98205.16
2022-08-25T00:17:13.560Z,98204.41
2022-08-25T00:19:43.786Z,98207.97
2022-08-25T00:22:13.931Z,98204.16
2022-08-25T00:24:46.766Z,98207.72
2022-08-25T00:27:18.121Z,98205.69
2022-08-25T00:29:48.420Z,98206.19
2022-08-25T00:32:18.611Z,98208.28
2022-08-25T00:34:49.735Z,98203.94
2022-08-25T00:37:20.134Z,98207.03
2022-08-25T00:39:55.190Z,98204.22
2022-08-25T00:42:25.745Z,98196.59
2022-08-25T00:44:56.460Z,98193.00
2022-08-25T00:47:26.869Z,98194.53
2022-08-25T00:50:01.754Z,98192.25
2022-08-25T00:52:40.315Z,98190.00
2022-08-25T00:55:21.446Z,98192.56
2022-08-25T00:57:58.725Z,98192.84
2022-08-25T01:00:36.035Z,98192.84
2022-08-25T01:03:07.089Z,98187.22
2022-08-25T01:05:38.090Z,98182.09
2022-08-25T01:08:09.493Z,98184.16
2022-08-25T01:10:47.533Z,98178.78
2022-08-25T01:13:23.942Z,98175.00
2022-08-25T01:15:59.198Z,98179.09
2022-08-25T01:18:30.696Z,98178.34
2022-08-25T01:21:03.554Z,98169.69
2022-08-25T01:23:34.325Z,98175.56
2022-08-25T01:26:08.819Z,98171.53
2022-08-25T01:29:00.821Z,98168.78
2022-08-25T01:31:31.922Z,98166.22
2022-08-25T01:34:03.154Z,98175.66
2022-08-25T01:36:38.226Z,98169.03
2022-08-25T01:39:09.510Z,98169.81
2022-08-25T01:41:53.356Z,98168.81
2022-08-25T01:44:23.777Z,98163.47
2022-08-25T01:46:55.156Z,98163.47
2022-08-25T01:49:25.789Z,98166.28
2022-08-25T01:52:04.311Z,98159.72
2022-08-25T01:54:34.697Z,98156.91
2022-08-25T01:57:06.564Z,98156.91
2022-08-25T01:59:36.865Z,98155.13
2022-08-25T02:02:08.843Z,98160.28
2022-08-25T02:04:44.424Z,98154.66
2022-08-25T02:07:17.675Z,98160.78
2022-08-25T02:09:47.986Z,98160.03
2022-08-25T02:12:18.282Z,98158.28
2022-08-25T02:14:49.298Z,98164.94
2022-08-25T02:17:20.134Z,98175.44
2022-08-25T02:19:50.405Z,98168.06
2022-08-25T02:22:23.357Z,98167.59
2022-08-25T02:24:53.561Z,98166.84
2022-08-25T02:27:24.336Z,98162.72
2022-08-25T02:29:54.561Z,98166.06
2022-08-25T02:32:24.725Z,98159.16
2022-08-25T02:34:54.970Z,98165.53
2022-08-25T02:37:27.769Z,98167.59
2022-08-25T02:39:57.955Z,98164.03
2022-08-25T02:42:28.246Z,98164.03
2022-08-25T02:44:58.835Z,98164.78
2022-08-25T02:47:29.584Z,98157.66
2022-08-25T02:49:59.845Z,98155.88
2022-08-25T02:52:32.607Z,98157.69
2022-08-25T02:55:04.230Z,98151.06
2022-08-25T02:57:34.722Z,98154.13
2022-08-25T03:00:06.977Z,98149.25
2022-08-25T03:02:37.547Z,98160.00
2022-08-25T03:05:09.519Z,98151.59
2022-08-25T03:07:42.360Z,98160.03
2022-08-25T03:10:18.993Z,98156.22
2022-08-25T03:12:49.935Z,98154.72
2022-08-25T03:15:21.312Z,98156.22
2022-08-25T03:17:52.300Z,98151.13
2022-08-25T03:20:23.934Z,98149.09
2022-08-25T03:22:56.909Z,98145.53
2022-08-25T03:25:39.610Z,98142.72
2022-08-25T03:28:11.374Z,98140.41
2022-08-25T03:30:41.702Z,98145.03
2022-08-25T03:33:12.635Z,98139.19
2022-08-25T03:35:44.223Z,98144.03
2022-08-25T03:38:17.122Z,98147.13
2022-08-25T03:40:47.667Z,98143.56
2022-08-25T03:43:18.461Z,98152.72
2022-08-25T03:45:49.677Z,98145.59
2022-08-25T03:48:21.089Z,98145.59
2022-08-25T03:50:54.952Z,98142.78
2022-08-25T03:53:28.155Z,98137.94
2022-08-25T03:55:58.778Z,98141.75
2022-08-25T03:58:29.093Z,98129.00
2022-08-25T04:01:00.630Z,98139.25
2022-08-25T04:03:30.995Z,98140.28
2022-08-25T04:06:04.657Z,98143.31
2022-08-25T04:08:38.052Z,98135.69
2022-08-25T04:11:14.131Z,98141.53
2022-08-25T04:13:45.814Z,98139.47
2022-08-25T04:16:19.446Z,98137.44
2022-08-25T04:18:51.714Z,98136.69
2022-08-25T04:21:23.717Z,98133.13
2022-08-25T04:23:59.166Z,98134.16
2022-08-25T04:26:33.157Z,98134.13
2022-08-25T04:29:05.162Z,98136.41
2022-08-25T04:31:36.464Z,98133.31
2022-08-25T04:34:29.447Z,98142.75
2022-08-25T04:36:58.593Z,98140.94
2022-08-25T04:39:32.130Z,98141.66
2022-08-25T04:42:03.399Z,98142.19
2022-08-25T04:44:34.133Z,98143.72
2022-08-25T04:47:04.186Z,98136.34
2022-08-25T04:49:34.380Z,98129.19
2022-08-25T04:52:04.652Z,98140.13
2022-08-25T04:54:40.649Z,98140.88
2022-08-25T04:57:10.844Z,98132.69
2022-08-25T04:59:41.476Z,98143.66
2022-08-25T05:02:11.702Z,98137.44
2022-08-25T05:04:42.028Z,98142.81
2022-08-25T05:07:12.215Z,98145.06
2022-08-25T05:09:45.286Z,98141.91
2022-08-25T05:12:15.438Z,98144.41
2022-08-25T05:14:46.314Z,98139.19
2022-08-25T05:17:16.566Z,98139.41
2022-08-25T05:19:47.348Z,98140.56
2022-08-25T05:22:17.298Z,98136.44
2022-08-25T05:24:51.280Z,98131.47
2022-08-25T05:27:21.658Z,98129.84
2022-08-25T05:29:52.152Z,98124.09
2022-08-25T05:32:22.453Z,98131.63
2022-08-25T05:34:52.608Z,98132.56
2022-08-25T05:37:22.990Z,98123.22
2022-08-25T05:39:55.869Z,98120.81
2022-08-25T05:42:26.265Z,98127.06
2022-08-25T05:44:56.496Z,98116.66
2022-08-25T05:47:26.706Z,98124.50
2022-08-25T05:49:56.890Z,98127.13
2022-08-25T05:52:31.021Z,98124.91
2022-08-25T05:55:03.849Z,98127.88
2022-08-25T05:57:34.063Z,98129.09
2022-08-25T06:00:07.397Z,98126.41
2022-08-25T06:02:44.196Z,98137.94
2022-08-25T06:05:17.592Z,98134.81
2022-08-25T06:07:48.107Z,98125.72
2022-08-25T06:10:22.290Z,98131.16
2022-08-25T06:12:52.588Z,98130.72
2022-08-25T06:15:25.541Z,98139.81
2022-08-25T06:18:01.606Z,98130.22
2022-08-25T06:20:34.836Z,98127.16
2022-08-25T06:23:05.005Z,98138.19
2022-08-25T06:25:37.755Z,98135.59
2022-08-25T06:28:07.932Z,98135.78
2022-08-25T06:30:38.076Z,98114.44
2022-08-25T06:33:08.241Z,98128.22
2022-08-25T06:35:38.448Z,98123.53
2022-08-25T06:38:08.692Z,98121.19
2022-08-25T06:40:41.751Z,98129.34
2022-08-25T06:43:11.915Z,98113.81
2022-08-25T06:45:44.204Z,98123.53
2022-08-25T06:48:14.396Z,98126.16
2022-08-25T06:50:45.481Z,98122.22
2022-08-25T06:53:16.190Z,98119.66
2022-08-25T06:55:48.991Z,98118.19
2022-08-25T06:58:19.321Z,98114.28
2022-08-25T07:00:49.386Z,98110.16
2022-08-25T07:05:56.608Z,98101.31
2022-08-25T07:08:26.763Z,98112.06
2022-08-25T07:10:59.656Z,98105.75
2022-08-25T07:13:32.219Z,98108.41
2022-08-25T07:16:02.572Z,98111.19
2022-08-25T07:18:33.077Z,98109.41
2022-08-25T07:21:03.388Z,98106.25
2022-08-25T07:23:34.212Z,98099.91
2022-08-25T07:26:36.292Z,98100.19
2022-08-25T07:29:05.685Z,98102.34
2022-08-25T07:31:35.966Z,98100.88
2022-08-25T07:34:20.108Z,98096.63
2022-08-25T07:36:50.519Z,98103.44
2022-08-25T07:39:22.087Z,98104.94
2022-08-25T07:41:55.640Z,98100.69
2022-08-25T07:44:28.209Z,98095.84
2022-08-25T07:46:59.134Z,98107.47
2022-08-25T07:49:35.764Z,98094.03
2022-08-25T07:52:09.900Z,98103.66
2022-08-25T07:54:40.942Z,98103.19
2022-08-25T07:57:14.115Z,98093.78
2022-08-25T07:59:45.629Z,98091.94
2022-08-25T08:02:18.922Z,98098.16
2022-08-25T08:04:51.290Z,98094.94
2022-08-25T08:07:23.275Z,98090.91
2022-08-25T08:10:10.674Z,98086.72
2022-08-25T08:12:47.642Z,98093.09
2022-08-25T08:15:17.973Z,98089.16
2022-08-25T08:17:50.024Z,98080.88
2022-08-25T08:20:23.268Z,98082.19
2022-08-25T08:22:53.934Z,98078.94
2022-08-25T08:25:27.220Z,98080.13
2022-08-25T08:28:00.661Z,98080.63
2022-08-25T08:30:31.465Z,98082.72
2022-08-25T08:33:11.164Z,98072.56
2022-08-25T08:35:42.963Z,98069.66
2022-08-25T08:38:18.488Z,98071.78
2022-08-25T08:41:22.921Z,98059.03
2022-08-25T08:44:03.689Z,98060.13
2022-08-25T08:46:45.409Z,98050.19
2022-08-25T08:49:27.966Z,98053.78
2022-08-25T08:52:04.272Z,98061.19
2022-08-25T08:54:41.254Z,98057.41
2022-08-25T08:57:17.371Z,98054.19
2022-08-25T08:59:57.767Z,98037.25
2022-08-25T09:02:39.313Z,98039.31
2022-08-25T09:05:25.870Z,98038.63
2022-08-25T09:08:01.031Z,98040.56
2022-08-25T09:10:46.051Z,98035.09
2022-08-25T09:13:32.810Z,98034.50
2022-08-25T09:16:33.944Z,98037.19
2022-08-25T09:19:25.053Z,98032.78
2022-08-25T09:22:01.127Z,98034.28
2022-08-25T09:24:52.253Z,98045.03
2022-08-25T09:27:34.850Z,98033.47
2022-08-25T09:30:11.488Z,98041.19
2022-08-25T09:32:52.488Z,98032.72
2022-08-25T09:35:26.983Z,98038.88
2022-08-25T09:38:03.389Z,98027.13
2022-08-25T09:40:37.380Z,98033.63
2022-08-25T09:43:22.894Z,98028.00
2022-08-25T09:46:02.498Z,98020.50
2022-08-25T09:48:46.583Z,98021.38
2022-08-25T09:51:28.504Z,98021.47
2022-08-25T09:54:10.735Z,98011.47
2022-08-25T09:56:53.657Z,98008.47
2022-08-25T09:59:34.547Z,97998.50
2022-08-25T10:02:09.197Z,97999.31
2022-08-25T10:04:43.214Z,97988.38
2022-08-25T10:07:28.356Z,97981.50
2022-08-25T10:10:02.033Z,97992.16
2022-08-25T10:12:42.466Z,97989.16
2022-08-25T10:15:29.431Z,97981.69
2022-08-25T10:18:23.549Z,97984.91
2022-08-25T10:21:13.768Z,97966.72
2022-08-25T10:23:51.765Z,97960.81
2022-08-25T10:26:35.030Z,97957.09
2022-08-25T10:29:45.489Z,97952.16
2022-08-25T10:32:22.316Z,97952.81
2022-08-25T10:34:58.043Z,97949.44
2022-08-25T10:37:45.313Z,97951.41
2022-08-25T10:40:26.582Z,97940.66
2022-08-25T10:43:09.349Z,97951.03
2022-08-25T10:45:45.647Z,97945.81
2022-08-25T10:49:01.234Z,97938.84
2022-08-25T10:51:42.443Z,97927.44
2022-08-25T10:54:29.702Z,97936.97
2022-08-25T10:57:10.733Z,97929.00
2022-08-25T11:00:04.013Z,97929.38
2022-08-25T11:03:07.862Z,97920.97
2022-08-25T11:05:44.687Z,97908.13
2022-08-25T11:08:22.528Z,97903.50
2022-08-25T11:11:08.995Z,97909.28
2022-08-25T11:13:48.221Z,97904.91
2022-08-25T11:16:25.392Z,97904.75
2022-08-25T11:19:00.806Z,97901.09
2022-08-25T11:21:45.676Z,97896.81
2022-08-25T11:24:44.330Z,97901.56
2022-08-25T11:27:25.309Z,97903.00
2022-08-25T11:30:07.194Z,97892.22
2022-08-25T11:32:38.252Z,97884.09
2022-08-25T11:35:13.192Z,97882.03
2022-08-25T11:38:00.022Z,97876.19
2022-08-25T11:40:44.543Z,97875.47
2022-08-25T11:43:43.400Z,97873.84
2022-08-25T11:46:44.176Z,97880.25
2022-08-25T11:49:48.889Z,97871.97
2022-08-25T11:52:54.252Z,97876.06
2022-08-25T11:55:32.797Z,97860.00
2022-08-25T11:58:50.560Z,97862.91
2022-08-25T12:02:11.716Z,97862.25
2022-08-25T12:04:45.460Z,97862.78
2022-08-25T12:07:29.918Z,97853.84
2022-08-25T12:10:21.583Z,97860.41
2022-08-25T12:13:10.432Z,97858.88
2022-08-25T12:16:04.012Z,97851.69
2022-08-25T12:18:50.479Z,97855.16
2022-08-25T12:21:36.220Z,97851.19
2022-08-25T12:24:16.174Z,97856.91
2022-08-25T12:26:57.694Z,97861.31
2022-08-25T12:29:35.965Z,97858.75
2022-08-25T12:32:36.827Z,97853.94
2022-08-25T12:35:41.202Z,97843.81
2022-08-25T12:38:19.178Z,97843.44
2022-08-25T12:41:07.645Z,97844.81
2022-08-25T12:43:40.878Z,97838.34
2022-08-25T12:46:40.608Z,97835.25
2022-08-25T12:49:38.652Z,97832.34
2022-08-25T12:52:14.721Z,97835.41
2022-08-25T12:54:53.891Z,97836.97
2022-08-25T12:57:44.864Z,97830.28
2022-08-25T13:00:23.760Z,97838.44
2022-08-25T13:03:24.588Z,97822.31
2022-08-25T13:06:36.426Z,97821.69
2022-08-25T13:09:45.803Z,97822.13
2022-08-25T13:12:20.564Z,97826.00
2022-08-25T13:14:57.867Z,97816.81
2022-08-25T13:17:30.173Z,97810.25
2022-08-25T13:20:25.770Z,97802.78
2022-08-25T13:23:04.113Z,97799.47
2022-08-25T13:25:35.093Z,97796.97
2022-08-25T13:28:10.954Z,97790.50
2022-08-25T13:30:41.973Z,97787.41
2022-08-25T13:33:25.217Z,97785.31
2022-08-25T13:36:18.848Z,97785.31
2022-08-25T13:38:50.582Z,97787.94
2022-08-25T13:41:29.547Z,97771.41
2022-08-25T13:44:04.223Z,97776.44
2022-08-25T13:46:35.018Z,97770.81
2022-08-25T13:49:11.510Z,97782.47
2022-08-25T13:51:52.730Z,97775.00
2022-08-25T13:54:35.227Z,97774.22
2022-08-25T13:57:19.921Z,97778.81
2022-08-25T13:59:55.558Z,97770.09
2022-08-25T14:02:49.939Z,97767.44
2022-08-25T14:05:36.646Z,97763.81
2022-08-25T14:08:23.617Z,97758.75
2022-08-25T14:11:15.026Z,97766.59
2022-08-25T14:13:48.023Z,97769.63
2022-08-25T14:16:27.169Z,97765.81
2022-08-25T14:19:03.666Z,97764.22
2022-08-25T14:21:36.061Z,97757.78
2022-08-25T14:24:11.972Z,97750.75
2022-08-25T14:26:53.754Z,97761.72
2022-08-25T14:29:25.223Z,97756.22
2022-08-25T14:31:55.633Z,97741.91
2022-08-25T14:34:30.290Z,97744.63
2022-08-25T14:37:01.821Z,97744.88
2022-08-25T14:39:35.320Z,97743.47
2022-08-25T14:42:08.930Z,97744.59
2022-08-25T14:44:39.575Z,97734.94
2022-08-25T14:47:11.277Z,97728.88
2022-08-25T14:49:46.339Z,97738.38
2022-08-25T14:52:24.462Z,97726.88
2022-08-25T14:54:54.623Z,97725.28
2022-08-25T14:57:28.054Z,97722.09
2022-08-25T14:59:58.637Z,97727.22
2022-08-25T15:02:29.368Z,97722.47
2022-08-25T15:05:05.951Z,97724.44
2022-08-25T15:07:50.079Z,97729.25
2022-08-25T15:10:21.790Z,97731.50
2022-08-25T15:12:54.949Z,97724.22
2022-08-25T15:15:26.586Z,97732.03
2022-08-25T15:17:59.264Z,97724.72
2022-08-25T15:20:31.275Z,97721.22
2022-08-25T15:23:02.071Z,97717.91
2022-08-25T15:25:32.399Z,97719.19
2022-08-25T15:28:09.771Z,97715.63
2022-08-25T15:30:44.491Z,97709.59
2022-08-25T15:33:16.222Z,97714.31
2022-08-25T15:35:46.561Z,97706.97
2022-08-25T15:38:20.761Z,97704.16
2022-08-25T15:40:50.944Z,97710.22
2022-08-25T15:43:23.821Z,97698.53
2022-08-25T15:45:55.998Z,97699.00
2022-08-25T15:48:26.354Z,97701.09
2022-08-25T15:51:00.995Z,97694.75
2022-08-25T15:53:32.548Z,97699.69
2022-08-25T15:56:04.879Z,97697.22
2022-08-25T15:58:39.934Z,97690.69
2022-08-25T16:01:24.701Z,97689.13
2022-08-25T16:03:55.516Z,97696.47
2022-08-25T16:06:27.422Z,97695.63
2022-08-25T16:08:59.038Z,97695.47
2022-08-25T16:11:31.593Z,97687.69
2022-08-25T16:14:05.227Z,97687.41
2022-08-25T16:16:36.673Z,97697.22
2022-08-25T16:19:07.714Z,97701.81
2022-08-25T16:21:42.215Z,97694.03
2022-08-25T16:24:17.888Z,97696.66
2022-08-25T16:26:48.823Z,97696.22
2022-08-25T16:29:22.792Z,97694.06
2022-08-25T16:31:55.154Z,97689.31
2022-08-25T16:34:28.542Z,97691.56
2022-08-25T16:37:01.336Z,97685.63
2022-08-25T16:39:31.609Z,97687.66
2022-08-25T16:42:01.848Z,97687.09
2022-08-25T16:44:34.824Z,97685.50
2022-08-25T16:47:06.057Z,97681.72
2022-08-25T16:49:39.754Z,97688.88
2022-08-25T16:52:30.963Z,97683.00
2022-08-25T16:55:14.945Z,97689.84
2022-08-25T16:57:48.301Z,97680.88
2022-08-25T17:00:25.317Z,97685.53
2022-08-25T17:02:59.629Z,97683.00
2022-08-25T17:05:30.853Z,97679.13
2022-08-25T17:08:15.764Z,97689.53
2022-08-25T17:10:46.478Z,97687.16
2022-08-25T17:13:17.257Z,97688.34
2022-08-25T17:15:52.301Z,97692.56
2022-08-25T17:18:22.868Z,97694.38
2022-08-25T17:21:02.183Z,97688.38
2022-08-25T17:23:34.923Z,97687.78
2022-08-25T17:26:06.190Z,97691.41
2022-08-25T17:28:36.956Z,97709.13
2022-08-25T17:31:10.488Z,97702.06
2022-08-25T17:33:41.084Z,97703.72
2022-08-25T17:36:17.032Z,97703.56
2022-08-25T17:38:47.990Z,97702.78
2022-08-25T17:41:18.250Z,97704.75
2022-08-25T17:43:48.427Z,97702.03
2022-08-25T17:46:21.793Z,97701.75
2022-08-25T17:48:52.389Z,97705.03
2022-08-25T17:51:23.721Z,97710.44
2022-08-25T17:53:55.295Z,97710.38
2022-08-25T17:56:27.929Z,97718.34
2022-08-25T17:58:59.383Z,97717.88
2022-08-25T18:01:40.154Z,97714.72
2022-08-25T18:04:17.192Z,97714.38
2022-08-25T18:06:48.842Z,97728.13
2022-08-25T18:09:20.137Z,97725.56
2022-08-25T18:11:50.561Z,97731.13
2022-08-25T18:14:25.216Z,97733.63
2022-08-25T18:17:04.050Z,97725.66
2022-08-25T18:19:35.014Z,97735.81
2022-08-25T18:22:06.330Z,97739.38
2022-08-25T18:24:36.920Z,97732.00
2022-08-25T18:27:07.758Z,97737.69
2022-08-25T18:29:37.930Z,97741.72
2022-08-25T18:32:13.529Z,97739.53
2022-08-25T18:34:43.932Z,97734.72
2022-08-25T18:37:27.108Z,97738.44
2022-08-25T18:40:10.214Z,97737.19
2022-08-25T18:42:40.578Z,97738.63
2022-08-25T18:45:13.247Z,97738.13
2022-08-25T18:47:46.190Z,97743.16
2022-08-25T18:50:16.451Z,97749.09
2022-08-25T18:52:46.375Z,97745.78
2022-08-25T18:55:16.621Z,97745.81
2022-08-25T18:57:47.544Z,97745.66
2022-08-25T19:00:24.334Z,97750.16
2022-08-25T19:02:59.818Z,97748.75
2022-08-25T19:05:35.601Z,97752.50
2022-08-25T19:08:09.385Z,97750.31
2022-08-25T19:10:40.856Z,97749.41
2022-08-25T19:13:12.540Z,97752.09
2022-08-25T19:15:44.590Z,97757.44
2022-08-25T19:18:17.857Z,97758.00
2022-08-25T19:20:49.367Z,97757.25
2022-08-25T19:23:22.606Z,97759.53
2022-08-25T19:25:52.868Z,97751.75
2022-08-25T19:28:23.347Z,97756.69
2022-08-25T19:30:54.663Z,97755.16
2022-08-25T19:33:42.254Z,97754.50
2022-08-25T19:36:16.692Z,97752.31
2022-08-25T19:38:47.669Z,97752.88
2022-08-25T19:41:18.113Z,97749.91
2022-08-25T19:43:56.127Z,97743.47
2022-08-25T19:46:33.353Z,97751.28
2022-08-25T19:49:12.581Z,97746.19
2022-08-25T19:51:46.975Z,97746.81
2022-08-25T19:54:24.776Z,97745.88
2022-08-25T19:56:55.896Z,97742.88
2022-08-25T19:59:36.607Z,97743.03
2022-08-25T20:02:16.441Z,97745.72
2022-08-25T20:04:54.631Z,97750.22
2022-08-25T20:07:27.921Z,97755.06
2022-08-25T20:09:59.605Z,97750.72
2022-08-25T20:12:31.356Z,97753.59
2022-08-25T20:15:02.120Z,97747.88
2022-08-25T20:17:32.096Z,97750.19
2022-08-25T20:20:09.878Z,97755.53
2022-08-25T20:22:41.199Z,97749.84
2022-08-25T20:25:13.461Z,97761.59
2022-08-25T20:27:47.074Z,97757.84
2022-08-25T20:30:22.396Z,97756.50
2022-08-25T20:32:53.488Z,97762.34
2022-08-25T20:35:29.350Z,97774.69
2022-08-25T20:38:01.106Z,97768.47
2022-08-25T20:40:33.583Z,97769.59
2022-08-25T20:43:04.934Z,97772.84
2022-08-25T20:45:40.685Z,97773.47
2022-08-25T20:48:11.073Z,97773.28
2022-08-25T20:50:44.387Z,97767.44
2022-08-25T20:53:15.396Z,97767.28
2022-08-25T20:55:45.958Z,97764.44
2022-08-25T20:58:17.200Z,97767.31
2022-08-25T21:00:48.133Z,97767.50
2022-08-25T21:03:18.417Z,97761.84
2022-08-25T21:05:54.153Z,97771.13
2022-08-25T21:08:25.451Z,97773.63
2022-08-25T21:10:55.729Z,97765.50
2022-08-25T21:13:25.980Z,97762.88
2022-08-25T21:15:56.585Z,97761.19
2022-08-25T21:18:31.396Z,97758.97
2022-08-25T21:21:12.426Z,97762.00
2022-08-25T21:23:43.675Z,97751.59
2022-08-25T21:26:16.854Z,97750.09
2022-08-25T21:28:47.743Z,97755.97
2022-08-25T21:31:20.704Z,97737.44
2022-08-25T21:33:51.193Z,97741.59
2022-08-25T21:36:24.679Z,97740.28
2022-08-25T21:38:56.988Z,97745.00
2022-08-25T21:41:30.983Z,97736.34
2022-08-25T21:44:02.359Z,97735.22
2022-08-25T21:46:35.864Z,97736.56
2022-08-25T21:49:09.462Z,97733.34
2022-08-25T21:51:45.396Z,97731.66
2022-08-25T21:54:20.615Z,97732.63
2022-08-25T21:56:58.544Z,97730.38
2022-08-25T21:59:31.936Z,97726.78
2022-08-25T22:02:05.488Z,97722.84
2022-08-25T22:04:36.796Z,97728.50
2022-08-25T22:07:12.462Z,97722.84
2022-08-25T22:09:43.353Z,97728.69
2022-08-25T22:12:13.717Z,97722.84
2022-08-25T22:14:46.009Z,97723.22
2022-08-25T22:17:20.940Z,97723.59
2022-08-25T22:19:53.531Z,97724.19
2022-08-25T22:22:27.140Z,97722.13
2022-08-25T22:24:57.389Z,97723.66
2022-08-25T22:27:27.860Z,97725.38
2022-08-25T22:29:57.813Z,97731.06
2022-08-25T22:32:28.099Z,97731.25
2022-08-25T22:34:58.294Z,97726.16
2022-08-25T22:37:31.693Z,97727.13
2022-08-25T22:40:05.813Z,97726.56
2022-08-25T22:42:36.151Z,97730.53
2022-08-25T22:45:07.222Z,97725.22
2022-08-25T22:47:38.343Z,97725.59
2022-08-25T22:50:13.125Z,97729.56
2022-08-25T22:52:46.281Z,97730.13
2022-08-25T22:55:18.322Z,97721.66
2022-08-25T22:57:54.679Z,97722.97
2022-08-25T23:00:25.527Z,97716.56
2022-08-25T23:02:56.356Z,97705.78
2022-08-25T23:05:26.664Z,97706.38
2022-08-25T23:08:00.707Z,97704.88
2022-08-25T23:10:32.589Z,97702.97
2022-08-25T23:13:03.422Z,97708.84
2022-08-25T23:15:37.618Z,97707.69
2022-08-25T23:18:07.923Z,97707.50
2022-08-25T23:20:50.582Z,97704.47
2022-08-25T23:23:23.381Z,97707.13
2022-08-25T23:25:54.295Z,97701.06
2022-08-25T23:28:25.324Z,97702.97
2022-08-25T23:30:59.344Z,97691.47
2022-08-25T23:33:31.341Z,97688.06
2022-08-25T23:36:03.121Z,97693.88
2022-08-25T23:38:37.133Z,97688.97
2022-08-25T23:41:11.280Z,97690.28
2022-08-25T23:43:41.460Z,97688.97
2022-08-25T23:46:11.885Z,97692.16
2022-08-25T23:48:42.558Z,97685.56
2022-08-25T23:51:13.576Z,97680.09
2022-08-25T23:53:46.460Z,97676.34
2022-08-25T23:56:16.624Z,97679.91
2022-08-25T23:58:46.795Z,97672.75
